EGNC - Carlisle
Distance from station: E 5mi, 14km
Updated: 12/18/2017 9:50am
NOT Current
Mist, Mostly cloudy
Mist, Mostly cloudy
 Wind from varies
Wind: varies 1 mph , 2 km/h
Temperature: 36°F , 2°C
Dew Point: 36°F , 2°C
Humidity: 100%
Barometer: 30.39 inHg , 1029 hPa
Summary: Mist
Clouds: Mostly Cloudy
Visibility: 3 miles , 5 km
Cloud details: Mostly Cloudy 1100 ft
2017/12/18 17:50 EGNC 181750Z VRB01KT 5000 BR BKN011 02/02 Q1029